Time;durP1;ratioP1;P1;durP2;ratioP2;P2;SDS_P1;SDS_P2;PMS_P1;PMS_P2;Temp;Humidity;BMP_temperature;BMP_pressure;BME280_temperature;BME280_humidity;BME280_pressure;Samples;Min_cycle;Max_cycle;Signal;HPM_P1;HPM_P2
2021/12/26 00:01:05;;;;;;;9.73;3.03;;;;;;;3.16;83.48;98877.44;4969426;28;20117;-50
2021/12/26 00:03:34;;;;;;;7.28;2.65;;;;;;;3.20;84.21;98880.88;4968635;28;20054;-47
2021/12/26 00:06:06;;;;;;;5.72;2.35;;;;;;;3.19;83.58;98876.59;4946615;28;20098;-53
2021/12/26 00:08:35;;;;;;;7.35;3.58;;;;;;;3.18;84.55;98868.06;4948373;28;20051;-48
2021/12/26 00:11:04;;;;;;;6.82;3.20;;;;;;;3.18;83.57;98869.78;4946747;28;20063;-50
2021/12/26 00:13:31;;;;;;;6.90;2.90;;;;;;;3.21;83.45;98865.53;4972263;28;20042;-54
2021/12/26 00:15:59;;;;;;;9.15;3.38;;;;;;;3.27;84.09;98864.72;4968272;28;20446;-50
2021/12/26 00:18:26;;;;;;;8.93;3.40;;;;;;;3.24;83.98;98871.53;4970792;28;20474;-53
2021/12/26 00:20:53;;;;;;;8.52;3.45;;;;;;;3.19;84.58;98863.81;4970223;28;20105;-48
2021/12/26 00:23:21;;;;;;;7.32;2.92;;;;;;;3.19;84.48;98864.69;4965313;28;20134;-47
2021/12/26 00:25:48;;;;;;;7.68;3.17;;;;;;;3.20;83.90;98868.06;4950582;28;20506;-54
2021/12/26 00:28:15;;;;;;;11.45;3.65;;;;;;;3.19;84.23;98861.25;4951090;28;20065;-54
2021/12/26 00:30:43;;;;;;;8.75;3.90;;;;;;;3.18;84.34;98862.94;4953904;28;20054;-53
2021/12/26 00:33:10;;;;;;;10.05;4.38;;;;;;;3.20;84.53;98873.19;4955612;28;20553;-49
2021/12/26 00:35:37;;;;;;;10.35;4.25;;;;;;;3.12;84.89;98870.59;4966156;28;20485;-52
2021/12/26 00:38:05;;;;;;;5.95;2.88;;;;;;;3.13;84.49;98861.19;4969149;28;20360;-49
2021/12/26 00:40:32;;;;;;;8.65;3.53;;;;;;;3.14;84.59;98862.94;4986738;28;20047;-45
2021/12/26 00:43:00;;;;;;;7.18;3.10;;;;;;;3.15;84.80;98862.06;4970168;28;20400;-49
2021/12/26 00:45:27;;;;;;;7.78;3.50;;;;;;;3.16;83.96;98850.97;4976757;28;20561;-49
2021/12/26 00:47:54;;;;;;;11.15;4.00;;;;;;;3.19;83.89;98853.56;4970322;28;20046;-49
2021/12/26 00:50:25;;;;;;;9.30;4.18;;;;;;;3.15;84.69;98849.28;4967921;28;20102;-51
2021/12/26 00:52:52;;;;;;;7.60;3.25;;;;;;;3.18;84.33;98849.31;4967824;28;20058;-51
2021/12/26 00:55:19;;;;;;;7.82;2.53;;;;;;;3.21;84.65;98859.56;4968214;28;20090;-48
2021/12/26 00:57:47;;;;;;;7.38;3.10;;;;;;;3.17;84.39;98852.69;4969132;28;20487;-49
2021/12/26 01:00:20;;;;;;;8.88;3.90;;;;;;;3.16;83.98;98861.22;4969992;28;20054;-51
2021/12/26 01:02:47;;;;;;;7.78;2.90;;;;;;;3.15;84.82;98850.16;4968479;28;20553;-50
2021/12/26 01:05:15;;;;;;;10.75;4.03;;;;;;;3.17;84.29;98847.56;4967725;28;20434;-48
2021/12/26 01:07:57;;;;;;;9.82;3.72;;;;;;;3.16;84.62;98856.97;4968913;28;20113;-47
2021/12/26 01:10:29;;;;;;;8.82;2.95;;;;;;;3.21;83.82;98857.03;4971583;28;20078;-52
2021/12/26 01:12:56;;;;;;;8.40;3.15;;;;;;;3.20;83.56;98842.50;4968536;28;20047;-45
2021/12/26 01:15:23;;;;;;;9.25;3.97;;;;;;;3.22;84.19;98846.75;4970296;28;20046;-51
2021/12/26 01:17:56;;;;;;;9.25;3.92;;;;;;;3.19;84.30;98830.53;4969669;28;20050;-52
2021/12/26 01:20:50;;;;;;;10.15;4.00;;;;;;;3.21;84.06;98842.50;4969812;28;20047;-49
2021/12/26 01:23:17;;;;;;;9.77;3.65;;;;;;;3.21;84.94;98834.00;4969247;28;20063;-48
2021/12/26 01:25:45;;;;;;;10.30;3.40;;;;;;;3.21;84.81;98816.06;4966961;28;20051;-49
2021/12/26 01:28:12;;;;;;;12.05;5.22;;;;;;;3.23;84.09;98827.16;4968067;28;20446;-52
2021/12/26 01:30:41;;;;;;;8.45;3.80;;;;;;;3.22;84.69;98820.34;4964624;28;20047;-47
2021/12/26 01:33:10;;;;;;;12.30;4.65;;;;;;;3.22;84.24;98825.47;4969404;28;20097;-48
2021/12/26 01:35:38;;;;;;;14.70;4.30;;;;;;;3.21;84.31;98818.63;4968362;28;20050;-53
2021/12/26 01:38:06;;;;;;;13.18;4.18;;;;;;;3.26;83.90;98805.84;4967448;28;20054;-52
2021/12/26 01:40:37;;;;;;;11.32;4.80;;;;;;;3.21;84.06;98805.84;4964228;28;20046;-51
2021/12/26 01:43:04;;;;;;;7.70;3.10;;;;;;;3.19;84.19;98799.84;4967645;28;20554;-53
2021/12/26 01:45:31;;;;;;;7.95;3.22;;;;;;;3.26;84.68;98816.94;4966335;28;20050;-51
2021/12/26 01:47:59;;;;;;;12.52;4.35;;;;;;;3.22;84.92;98804.97;4967512;28;20174;-48
2021/12/26 01:50:28;;;;;;;14.00;4.30;;;;;;;3.24;84.27;98797.31;4966788;28;20055;-52
2021/12/26 01:52:54;;;;;;;14.48;5.57;;;;;;;3.27;84.46;98793.06;4968268;28;20047;-53
2021/12/26 01:55:25;;;;;;;8.73;4.47;;;;;;;3.24;84.97;98797.31;4967873;28;20472;-50
2021/12/26 01:57:55;;;;;;;11.85;5.55;;;;;;;3.26;85.01;98796.47;4967957;28;20055;-48
2021/12/26 02:00:23;;;;;;;12.63;4.75;;;;;;;3.28;84.13;98791.38;4968482;28;20043;-48
2021/12/26 02:02:50;;;;;;;14.55;6.07;;;;;;;3.32;83.93;98793.94;4967706;28;20050;-49
2021/12/26 02:05:17;;;;;;;13.52;5.13;;;;;;;3.28;84.43;98796.50;4965531;28;20101;-53
2021/12/26 02:07:44;;;;;;;14.77;5.13;;;;;;;3.29;84.04;98791.38;4964248;28;20083;-50
2021/12/26 02:10:11;;;;;;;12.38;4.88;;;;;;;3.26;84.95;98796.47;4968017;28;20051;-48
2021/12/26 02:12:38;;;;;;;11.52;4.03;;;;;;;3.33;83.96;98798.25;4967418;28;20089;-47
2021/12/26 02:15:05;;;;;;;11.30;5.70;;;;;;;3.28;83.67;98792.22;4967299;28;20046;-51
2021/12/26 02:17:32;;;;;;;12.70;4.57;;;;;;;3.27;84.65;98787.94;4967898;28;20047;-47
2021/12/26 02:20:22;;;;;;;10.82;4.30;;;;;;;3.26;83.86;98795.63;4967142;28;20558;-50
2021/12/26 02:22:55;;;;;;;10.18;4.18;;;;;;;3.30;84.01;98793.09;4966880;28;20479;-48
2021/12/26 02:27:30;;;;;;;14.07;4.95;;;;;;;3.28;83.94;98789.66;4966258;28;20174;-54
2021/12/26 02:28:09;;;;;;;16.20;5.82;;;;;;;3.31;84.25;98793.97;4964261;28;20045;-50
2021/12/26 02:30:36;;;;;;;11.27;4.68;;;;;;;3.30;84.87;98790.53;4965416;28;20054;-48
2021/12/26 02:33:04;;;;;;;12.32;4.93;;;;;;;3.33;84.89;98794.81;4969227;28;20535;-50
2021/12/26 02:35:31;;;;;;;11.15;5.22;;;;;;;3.34;84.21;98789.72;4970173;28;20445;-51
2021/12/26 02:37:57;;;;;;;14.25;6.10;;;;;;;3.37;84.76;98804.22;4969552;28;20098;-53
2021/12/26 02:40:24;;;;;;;13.65;5.32;;;;;;;3.33;84.59;98792.25;4966596;28;20658;-47
2021/12/26 02:42:51;;;;;;;9.98;4.78;;;;;;;3.36;84.08;98809.31;4966498;28;20478;-50
2021/12/26 02:45:18;;;;;;;12.23;5.53;;;;;;;3.34;84.79;98809.31;4967725;28;20054;-50
2021/12/26 02:47:47;;;;;;;12.75;4.57;;;;;;;3.37;84.75;98800.81;4970752;28;20069;-52
2021/12/26 02:50:21;;;;;;;14.70;5.20;;;;;;;3.36;83.81;98796.53;4968633;28;20109;-47
2021/12/26 02:52:48;;;;;;;12.18;4.47;;;;;;;3.37;84.72;98793.16;4966933;28;20050;-54
2021/12/26 02:55:19;;;;;;;14.63;5.53;;;;;;;3.36;85.03;98796.53;4971168;28;20046;-50
2021/12/26 02:57:47;;;;;;;10.65;5.32;;;;;;;3.39;84.31;98791.44;4969464;28;20050;-55
2021/12/26 03:00:17;;;;;;;13.88;4.00;;;;;;;3.39;83.61;98789.75;4978879;28;20077;-50
2021/12/26 03:02:52;;;;;;;13.50;5.28;;;;;;;3.41;83.71;98788.03;4967667;28;20055;-47
2021/12/26 03:05:20;;;;;;;13.60;4.95;;;;;;;3.40;84.30;98788.88;4968834;28;20058;-51
2021/12/26 03:07:48;;;;;;;14.60;4.57;;;;;;;3.40;84.56;98782.91;4968137;28;20054;-52
2021/12/26 03:10:21;;;;;;;15.10;4.93;;;;;;;3.41;84.37;98782.06;4970317;28;20097;-54
2021/12/26 03:12:51;;;;;;;11.88;4.82;;;;;;;3.42;84.46;98778.66;4969597;28;20059;-53
2021/12/26 03:15:18;;;;;;;9.50;4.40;;;;;;;3.43;84.30;98767.56;4967153;28;20460;-50
2021/12/26 03:17:46;;;;;;;10.73;4.40;;;;;;;3.42;84.66;98771.84;4967024;28;20061;-51
2021/12/26 03:20:16;;;;;;;13.20;5.30;;;;;;;3.41;84.60;98769.28;4962590;28;20108;-51
2021/12/26 03:22:44;;;;;;;9.48;4.28;;;;;;;3.41;84.38;98764.16;4964800;28;20047;-49
2021/12/26 03:25:14;;;;;;;9.27;4.22;;;;;;;3.43;84.24;98767.56;4966244;28;20050;-51
2021/12/26 03:27:41;;;;;;;12.40;4.75;;;;;;;3.45;83.89;98760.75;4965359;28;20055;-52
2021/12/26 03:30:10;;;;;;;7.85;3.45;;;;;;;3.42;84.69;98766.72;4967913;28;20542;-46
2021/12/26 03:32:37;;;;;;;11.27;4.25;;;;;;;3.42;84.07;98756.50;4962826;28;20553;-48
2021/12/26 03:35:05;;;;;;;11.88;5.07;;;;;;;3.41;85.20;98759.03;4964751;28;20046;-51
2021/12/26 03:37:32;;;;;;;8.27;3.67;;;;;;;3.42;84.11;98753.06;4964217;28;20055;-48
2021/12/26 03:39:59;;;;;;;9.98;3.53;;;;;;;3.43;84.01;98754.75;4964650;28;20106;-53
2021/12/26 03:42:26;;;;;;;11.45;5.00;;;;;;;3.44;84.70;98748.78;4963642;28;20065;-53
2021/12/26 03:44:53;;;;;;;11.25;4.72;;;;;;;3.45;84.33;98747.97;4963392;28;20054;-50
2021/12/26 03:47:20;;;;;;;17.10;5.88;;;;;;;3.44;84.21;98749.66;4965379;28;20047;-51
2021/12/26 03:49:49;;;;;;;14.98;5.22;;;;;;;3.48;84.35;98745.44;4966750;28;20043;-55
2021/12/26 03:52:17;;;;;;;13.82;5.35;;;;;;;3.49;84.78;98741.16;4964305;28;20557;-49
2021/12/26 03:54:43;;;;;;;15.05;4.15;;;;;;;3.46;84.17;98742.84;4968799;28;20050;-54
2021/12/26 03:57:10;;;;;;;14.80;5.05;;;;;;;3.46;83.64;98747.09;4966298;28;20047;-51
2021/12/26 03:59:36;;;;;;;13.40;5.05;;;;;;;3.44;83.59;98733.44;4964452;28;20050;-53
2021/12/26 04:02:03;;;;;;;8.77;3.20;;;;;;;3.41;84.03;98731.72;4965097;28;20113;-50
2021/12/26 04:04:31;;;;;;;8.43;2.72;;;;;;;3.43;84.37;98736.84;4967860;28;20074;-52
2021/12/26 04:06:57;;;;;;;9.25;3.90;;;;;;;3.42;84.47;98740.25;4966902;28;20462;-48
2021/12/26 04:09:24;;;;;;;9.23;4.43;;;;;;;3.42;84.33;98730.03;4967930;28;20050;-49
2021/12/26 04:11:50;;;;;;;13.10;5.30;;;;;;;3.40;84.35;98732.56;4966015;28;20058;-48
2021/12/26 04:14:17;;;;;;;11.27;4.90;;;;;;;3.39;84.79;98737.69;4967592;28;20487;-47
2021/12/26 04:16:44;;;;;;;12.82;4.15;;;;;;;3.38;84.82;98723.19;4965884;28;20055;-51
2021/12/26 04:19:11;;;;;;;7.78;3.22;;;;;;;3.39;84.52;98720.63;4966361;28;20054;-49
2021/12/26 04:21:38;;;;;;;11.35;4.53;;;;;;;3.43;83.67;98730.03;4967585;28;20058;-47
2021/12/26 04:24:05;;;;;;;17.75;6.38;;;;;;;3.44;84.45;98718.06;4966464;28;20046;-52
2021/12/26 04:26:33;;;;;;;10.52;4.85;;;;;;;3.44;83.72;98712.94;4964711;28;20102;-53
2021/12/26 04:29:00;;;;;;;12.20;4.95;;;;;;;3.42;83.41;98714.66;4968509;28;20113;-52
2021/12/26 04:31:26;;;;;;;10.38;4.57;;;;;;;3.43;83.52;98718.94;4967778;28;20046;-50
2021/12/26 04:33:53;;;;;;;10.38;4.07;;;;;;;3.38;84.09;98713.78;4965485;28;20039;-56
2021/12/26 04:36:21;;;;;;;9.75;4.68;;;;;;;3.40;84.30;98712.09;4964843;28;20122;-53
2021/12/26 04:38:48;;;;;;;10.15;3.95;;;;;;;3.40;83.98;98716.34;4967758;28;20388;-49
2021/12/26 04:41:15;;;;;;;9.18;4.10;;;;;;;3.39;83.92;98696.72;4969775;28;20105;-54
2021/12/26 04:43:41;;;;;;;13.60;5.05;;;;;;;3.39;83.90;98704.41;4963283;28;20623;-51
2021/12/26 04:46:09;;;;;;;13.68;5.20;;;;;;;3.39;84.02;98710.38;4965428;28;20051;-52
2021/12/26 04:48:39;;;;;;;11.73;3.80;;;;;;;3.34;84.15;98702.69;4964815;28;20043;-53
2021/12/26 04:51:09;;;;;;;12.18;4.90;;;;;;;3.38;84.53;98702.69;4961298;28;20126;-47
2021/12/26 04:53:37;;;;;;;14.70;5.43;;;;;;;3.37;84.79;98703.56;4962542;28;20059;-53
2021/12/26 04:56:04;;;;;;;15.95;4.97;;;;;;;3.36;84.54;98701.81;4964582;28;20097;-52
2021/12/26 04:58:31;;;;;;;14.55;4.88;;;;;;;3.36;83.84;98696.72;4964292;28;20114;-51
2021/12/26 05:00:58;;;;;;;18.70;7.05;;;;;;;3.33;84.70;98690.75;4961630;28;21740;-53
2021/12/26 05:03:25;;;;;;;13.32;6.10;;;;;;;3.32;85.24;98683.88;4966676;28;20427;-51
2021/12/26 05:05:51;;;;;;;14.90;3.97;;;;;;;3.32;84.72;98691.56;4967330;28;20109;-53
2021/12/26 05:08:18;;;;;;;13.48;5.30;;;;;;;3.34;84.17;98697.56;4967027;28;20054;-52
2021/12/26 05:10:45;;;;;;;12.13;4.45;;;;;;;3.30;84.59;98692.41;4968173;28;20101;-51
2021/12/26 05:13:12;;;;;;;13.98;5.25;;;;;;;3.30;85.07;98690.72;4968134;28;20066;-49
2021/12/26 05:15:38;;;;;;;21.75;6.18;;;;;;;3.29;84.58;98693.28;4968831;28;20058;-51
2021/12/26 05:18:05;;;;;;;14.55;4.70;;;;;;;3.28;84.82;98676.22;4971555;28;20057;-49
2021/12/26 05:20:32;;;;;;;11.32;5.18;;;;;;;3.28;84.25;98677.03;4968495;28;20412;-53
2021/12/26 05:22:59;;;;;;;13.15;5.43;;;;;;;3.29;84.30;98681.34;4965136;28;20047;-50
2021/12/26 05:25:26;;;;;;;15.48;5.45;;;;;;;3.28;84.70;98681.31;4967569;28;20647;-47
2021/12/26 05:27:54;;;;;;;19.60;5.70;;;;;;;3.29;84.03;98691.56;4969820;28;20050;-52
2021/12/26 05:30:22;;;;;;;20.30;7.00;;;;;;;3.29;84.88;98678.78;4970053;28;20517;-49
2021/12/26 05:32:49;;;;;;;12.07;5.05;;;;;;;3.32;84.26;98678.78;4961624;28;20050;-53
2021/12/26 05:35:17;;;;;;;12.07;4.35;;;;;;;3.31;84.32;98682.19;4969742;28;20038;-52
2021/12/26 05:37:45;;;;;;;18.33;6.40;;;;;;;3.33;83.91;98680.50;4967555;28;20054;-51
2021/12/26 05:40:12;;;;;;;16.20;5.65;;;;;;;3.32;84.84;98688.16;4968274;28;20505;-49
2021/12/26 05:42:40;;;;;;;12.35;4.22;;;;;;;3.32;84.04;98683.88;4966786;28;20503;-47
2021/12/26 05:45:09;;;;;;;13.50;5.22;;;;;;;3.30;84.02;98692.41;4967325;28;20046;-50
2021/12/26 05:47:35;;;;;;;13.73;5.18;;;;;;;3.28;84.16;98677.03;4972951;28;20053;-53
2021/12/26 05:50:05;;;;;;;13.10;4.68;;;;;;;3.29;85.07;98690.72;4968047;28;20062;-49
2021/12/26 05:52:32;;;;;;;10.82;4.05;;;;;;;3.28;84.72;98687.28;4966897;28;20121;-53
2021/12/26 05:54:58;;;;;;;15.82;6.18;;;;;;;3.27;84.93;98679.63;4969782;28;20059;-53
2021/12/26 05:57:25;;;;;;;12.30;5.22;;;;;;;3.28;84.47;98683.88;4966855;28;20054;-51
2021/12/26 05:59:52;;;;;;;18.20;5.07;;;;;;;3.28;83.99;98687.28;4968705;28;20059;-50
2021/12/26 06:02:18;;;;;;;14.10;5.47;;;;;;;3.29;84.75;98683.91;4968981;28;20051;-56
2021/12/26 06:04:45;;;;;;;14.82;5.18;;;;;;;3.28;84.36;98684.72;4968398;28;20097;-49
2021/12/26 06:07:12;;;;;;;15.95;5.57;;;;;;;3.30;83.95;98685.59;4966296;28;20054;-50
2021/12/26 06:09:39;;;;;;;14.52;5.97;;;;;;;3.29;84.18;98683.91;4969285;28;20046;-50
2021/12/26 06:12:06;;;;;;;17.45;5.05;;;;;;;3.30;84.25;98679.63;4968696;28;20077;-48
2021/12/26 06:14:33;;;;;;;16.45;6.03;;;;;;;3.31;84.23;98677.06;4967275;28;20039;-48
2021/12/26 06:17:00;;;;;;;14.43;5.68;;;;;;;3.32;84.79;98670.25;4966119;28;20671;-51
2021/12/26 06:19:26;;;;;;;15.20;5.72;;;;;;;3.30;84.96;98665.13;4967128;28;20050;-51
2021/12/26 06:21:53;;;;;;;16.10;5.40;;;;;;;3.32;84.74;98672.81;4970075;28;20100;-50
2021/12/26 06:24:20;;;;;;;15.57;6.22;;;;;;;3.33;84.19;98665.16;4964443;28;20446;-48
2021/12/26 06:26:47;;;;;;;17.05;5.07;;;;;;;3.36;85.00;98663.44;4970160;28;20066;-51
2021/12/26 06:29:14;;;;;;;18.35;6.22;;;;;;;3.41;84.17;98666.88;4965073;28;20051;-47
2021/12/26 06:31:41;;;;;;;17.00;6.35;;;;;;;3.42;84.53;98668.59;4964726;28;20117;-49
2021/12/26 06:34:08;;;;;;;15.65;5.63;;;;;;;3.41;84.75;98672.00;4964868;28;20066;-48
2021/12/26 06:36:35;;;;;;;11.30;4.53;;;;;;;3.44;83.80;98672.00;4968289;28;20057;-54
2021/12/26 06:39:02;;;;;;;16.05;5.13;;;;;;;3.43;84.25;98673.72;4968426;28;20055;-53
2021/12/26 06:41:29;;;;;;;13.25;5.35;;;;;;;3.42;84.55;98673.72;4969265;28;20067;-50
2021/12/26 06:43:55;;;;;;;13.38;5.40;;;;;;;3.41;84.83;98667.72;4967595;28;20423;-50
2021/12/26 06:46:22;;;;;;;16.75;6.47;;;;;;;3.40;84.45;98671.13;4967578;28;20050;-50
2021/12/26 06:48:49;;;;;;;22.17;7.25;;;;;;;3.44;84.72;98661.75;4966921;28;20063;-51
2021/12/26 06:51:16;;;;;;;13.57;5.22;;;;;;;3.45;84.70;98663.50;4969436;28;20079;-54
2021/12/26 06:53:43;;;;;;;19.55;7.93;;;;;;;3.44;84.99;98662.63;4968940;28;20200;-51
2021/12/26 06:56:10;;;;;;;15.38;5.80;;;;;;;3.44;84.30;98661.75;4966401;28;20055;-51
2021/12/26 06:58:36;;;;;;;19.65;5.90;;;;;;;3.46;84.69;98662.63;4969493;28;20059;-50
2021/12/26 07:01:03;;;;;;;19.50;6.90;;;;;;;3.49;84.88;98662.66;4966491;28;20117;-47
2021/12/26 07:03:30;;;;;;;20.90;7.82;;;;;;;3.50;84.14;98660.94;4966024;28;20781;-46
2021/12/26 07:05:57;;;;;;;14.85;5.35;;;;;;;3.51;83.99;98663.50;4970009;28;20061;-49
2021/12/26 07:08:23;;;;;;;15.45;6.07;;;;;;;3.50;84.67;98660.94;4966404;28;20051;-52
2021/12/26 07:10:50;;;;;;;21.98;6.78;;;;;;;3.50;84.35;98661.78;4964870;28;20058;-54
2021/12/26 07:13:17;;;;;;;14.73;5.72;;;;;;;3.49;84.36;98657.53;4966806;28;20074;-50
2021/12/26 07:15:44;;;;;;;21.13;6.75;;;;;;;3.50;84.28;98664.34;4968709;28;20043;-52
2021/12/26 07:18:10;;;;;;;15.73;5.55;;;;;;;3.52;84.50;98657.53;4967456;28;20046;-49
2021/12/26 07:20:37;;;;;;;13.23;6.38;;;;;;;3.53;84.30;98664.38;4969197;28;20050;-49
2021/12/26 07:23:05;;;;;;;20.73;6.97;;;;;;;3.57;84.13;98663.53;4967507;28;20051;-48
2021/12/26 07:25:32;;;;;;;21.05;6.97;;;;;;;3.59;83.92;98656.69;4963997;28;20050;-53
2021/12/26 07:27:59;;;;;;;18.40;6.38;;;;;;;3.59;84.42;98666.94;4965981;28;20394;-53
2021/12/26 07:30:26;;;;;;;19.75;6.85;;;;;;;3.61;84.18;98664.38;4963240;28;20043;-54
2021/12/26 07:32:53;;;;;;;18.02;7.65;;;;;;;3.60;84.50;98658.41;4967514;28;20109;-54
2021/12/26 07:35:19;;;;;;;14.77;6.07;;;;;;;3.63;84.81;98664.38;4965694;28;20396;-50
2021/12/26 07:37:46;;;;;;;13.80;6.13;;;;;;;3.65;84.76;98666.09;4962680;28;20491;-50
2021/12/26 07:40:13;;;;;;;11.00;4.65;;;;;;;3.66;84.30;98666.97;4965243;28;20587;-50
2021/12/26 07:42:41;;;;;;;17.30;6.82;;;;;;;3.64;84.08;98668.69;4966048;28;20487;-49
2021/12/26 07:45:08;;;;;;;16.10;6.38;;;;;;;3.66;83.92;98666.97;4963605;28;20395;-52
2021/12/26 07:47:35;;;;;;;22.23;6.90;;;;;;;3.65;84.26;98671.22;4968057;28;20054;-51
2021/12/26 07:50:03;;;;;;;19.52;7.15;;;;;;;3.68;84.35;98670.41;4967499;28;20510;-54
2021/12/26 07:52:34;;;;;;;21.13;5.97;;;;;;;3.65;84.83;98662.69;4968681;28;20051;-52
2021/12/26 07:55:03;;;;;;;17.38;6.53;;;;;;;3.66;84.43;98666.97;4967245;28;20047;-48
2021/12/26 07:57:30;;;;;;;16.48;5.68;;;;;;;3.64;84.98;98669.50;4967458;28;20382;-57
2021/12/26 07:59:57;;;;;;;18.98;6.78;;;;;;;3.68;84.77;98672.97;4964321;28;20431;-51
2021/12/26 08:02:23;;;;;;;21.90;6.22;;;;;;;3.67;84.83;98673.78;4965417;28;20061;-48
2021/12/26 08:04:50;;;;;;;23.10;7.28;;;;;;;3.67;84.94;98674.66;4964983;28;20054;-48
2021/12/26 08:07:17;;;;;;;20.88;6.78;;;;;;;3.69;84.37;98674.66;4964086;28;20043;-53
2021/12/26 08:09:44;;;;;;;17.77;6.03;;;;;;;3.66;84.68;98678.06;4968400;28;20051;-57
2021/12/26 08:12:11;;;;;;;16.95;5.78;;;;;;;3.64;84.87;98673.81;4965294;28;20506;-54
2021/12/26 08:14:37;;;;;;;20.48;7.38;;;;;;;3.67;84.96;98674.66;4966335;28;20050;-53
2021/12/26 08:17:04;;;;;;;22.60;7.53;;;;;;;3.68;85.26;98671.22;4964803;28;20442;-52
2021/12/26 08:19:31;;;;;;;28.73;8.75;;;;;;;3.69;84.92;98675.50;4965767;28;20074;-53
2021/12/26 08:21:58;;;;;;;20.38;7.15;;;;;;;3.70;85.20;98673.81;4968215;28;20070;-52
2021/12/26 08:24:26;;;;;;;21.67;7.15;;;;;;;3.70;84.97;98681.47;4969605;28;20102;-49
2021/12/26 08:26:53;;;;;;;18.02;7.40;;;;;;;3.70;84.83;98686.59;4964769;28;20051;-52
2021/12/26 08:29:22;;;;;;;27.08;8.23;;;;;;;3.69;84.60;98684.91;4965624;28;20074;-53
2021/12/26 08:31:54;;;;;;;25.98;7.82;;;;;;;3.72;85.09;98697.72;4966333;28;20047;-53
2021/12/26 08:34:22;;;;;;;30.67;8.40;;;;;;;3.72;85.42;98690.88;4967693;28;20049;-52
2021/12/26 08:36:58;;;;;;;33.97;8.15;;;;;;;3.73;84.77;98695.16;4964111;28;20474;-47
2021/12/26 08:39:28;;;;;;;33.20;8.80;;;;;;;3.73;85.25;98694.31;4959041;28;20078;-50
2021/12/26 08:41:55;;;;;;;28.42;9.48;;;;;;;3.76;84.62;98694.31;4965211;28;20542;-53
2021/12/26 08:44:23;;;;;;;34.15;9.50;;;;;;;3.80;85.10;98685.78;4968494;28;22013;-53
2021/12/26 08:46:50;;;;;;;40.05;9.38;;;;;;;3.80;85.19;98692.63;4961954;28;20051;-53
2021/12/26 08:49:19;;;;;;;34.38;8.63;;;;;;;3.80;85.19;98690.03;4966140;28;20059;-47
2021/12/26 08:51:46;;;;;;;25.77;7.38;;;;;;;3.82;85.07;98698.59;4969752;28;20066;-54
2021/12/26 08:54:14;;;;;;;29.20;7.80;;;;;;;3.83;84.94;98695.19;4964905;28;20094;-50
2021/12/26 08:56:42;;;;;;;29.75;8.50;;;;;;;3.85;85.00;98703.75;4967888;28;20043;-50
2021/12/26 08:59:09;;;;;;;28.20;9.13;;;;;;;3.90;85.17;98696.06;4968632;28;20051;-52
2021/12/26 09:01:36;;;;;;;30.00;7.95;;;;;;;3.88;84.93;98700.34;4968864;28;20047;-50
2021/12/26 09:04:04;;;;;;;34.45;8.77;;;;;;;3.86;84.76;98698.59;4968258;28;20050;-52
2021/12/26 09:06:30;;;;;;;31.63;8.63;;;;;;;3.88;85.12;98697.78;4963878;28;20055;-48
2021/12/26 09:08:57;;;;;;;32.65;8.77;;;;;;;3.90;85.18;98706.31;4972342;28;20050;-52
2021/12/26 09:11:24;;;;;;;32.33;9.07;;;;;;;3.89;85.12;98689.22;4966276;28;20054;-47
2021/12/26 09:13:51;;;;;;;33.72;10.40;;;;;;;3.91;85.11;98708.00;4974531;28;20047;-51
2021/12/26 09:16:18;;;;;;;29.65;7.72;;;;;;;3.93;84.84;98696.94;4967424;28;20109;-48
2021/12/26 09:18:44;;;;;;;27.77;8.48;;;;;;;3.93;84.71;98696.94;4968322;28;20142;-54
2021/12/26 09:21:11;;;;;;;35.60;8.70;;;;;;;3.95;85.36;98691.81;4967951;28;20079;-47
2021/12/26 09:23:37;;;;;;;33.85;8.57;;;;;;;3.98;85.17;98699.47;4965463;28;20137;-51
2021/12/26 09:26:04;;;;;;;28.35;7.78;;;;;;;3.98;84.49;98702.03;4968246;28;20043;-53
2021/12/26 09:28:35;;;;;;;28.02;6.97;;;;;;;3.97;84.99;98705.47;4969209;28;20114;-52
2021/12/26 09:31:04;;;;;;;33.55;8.35;;;;;;;3.96;85.01;98701.19;4970041;28;20050;-47
2021/12/26 09:33:30;;;;;;;31.02;8.93;;;;;;;3.99;85.22;98708.91;4967295;28;20125;-54
2021/12/26 09:35:57;;;;;;;33.30;8.82;;;;;;;4.02;85.25;98714.00;4965564;28;20043;-51
2021/12/26 09:38:24;;;;;;;30.75;6.70;;;;;;;4.06;85.10;98708.03;4969014;28;20054;-48
2021/12/26 09:40:51;;;;;;;37.72;8.25;;;;;;;4.03;84.78;98708.06;4965494;28;20046;-53
2021/12/26 09:43:17;;;;;;;37.53;8.50;;;;;;;4.05;85.27;98706.34;4964069;28;20038;-47
2021/12/26 09:45:44;;;;;;;33.03;8.35;;;;;;;4.05;84.97;98708.91;4964972;28;20066;-53
2021/12/26 09:48:11;;;;;;;36.15;7.80;;;;;;;4.05;85.07;98711.47;4969903;28;20190;-53
2021/12/26 09:50:37;;;;;;;46.15;8.82;;;;;;;4.08;85.21;98703.78;4967200;28;20054;-51
2021/12/26 09:53:04;;;;;;;31.77;7.57;;;;;;;4.07;85.41;98707.22;4967564;28;20043;-51
2021/12/26 09:55:31;;;;;;;32.88;8.63;;;;;;;4.09;84.84;98707.22;4968962;28;20042;-50
2021/12/26 09:57:58;;;;;;;43.90;9.57;;;;;;;4.10;84.86;98702.09;4965646;28;20453;-51
2021/12/26 10:00:33;;;;;;;34.00;7.95;;;;;;;4.10;84.29;98703.78;4965102;28;20145;-49
2021/12/26 10:03:30;;;;;;;39.80;8.35;;;;;;;4.10;85.20;98709.78;4964810;28;20401;-52
2021/12/26 10:06:13;;;;;;;35.13;8.07;;;;;;;4.13;85.51;98702.94;4962637;28;20050;-51
2021/12/26 10:09:03;;;;;;;38.55;8.18;;;;;;;4.14;85.57;98704.63;4967761;28;20050;-51
2021/12/26 10:11:37;;;;;;;45.05;9.07;;;;;;;4.16;85.13;98702.94;4961297;28;20058;-53
2021/12/26 10:14:08;;;;;;;33.67;10.20;;;;;;;4.21;85.54;98698.69;4973771;28;20058;-50
2021/12/26 10:16:39;;;;;;;45.95;8.07;;;;;;;4.22;85.27;98702.97;4966304;28;20109;-53
2021/12/26 10:19:08;;;;;;;55.08;9.35;;;;;;;4.25;85.16;98695.25;4967306;28;20046;-53
2021/12/26 10:21:45;;;;;;;36.25;8.48;;;;;;;4.24;84.92;98691.88;4962080;28;20169;-57
2021/12/26 10:24:18;;;;;;;58.45;9.00;;;;;;;4.27;85.52;98693.56;4964236;28;20153;-47
2021/12/26 10:26:49;;;;;;;43.03;8.30;;;;;;;4.26;85.16;98699.56;4967747;28;20051;-56
2021/12/26 10:29:24;;;;;;;45.75;7.78;;;;;;;4.30;84.89;98701.28;4964397;28;20047;-53
2021/12/26 10:31:56;;;;;;;68.25;9.73;;;;;;;4.30;84.90;98696.13;4961538;28;20546;-53
2021/12/26 10:34:27;;;;;;;33.33;6.63;;;;;;;4.30;84.77;98693.56;4964975;28;20661;-50
2021/12/26 10:36:56;;;;;;;34.67;7.38;;;;;;;4.29;85.17;98696.97;4964851;28;20050;-49
2021/12/26 10:39:25;;;;;;;51.28;9.55;;;;;;;4.32;84.97;98694.41;4966961;28;21262;-51
2021/12/26 10:41:56;;;;;;;32.75;6.40;;;;;;;4.34;85.18;98691.84;4968095;28;20423;-51
2021/12/26 10:44:30;;;;;;;35.97;8.98;;;;;;;4.35;84.59;98684.16;4964728;28;20058;-49
2021/12/26 10:47:00;;;;;;;36.53;6.75;;;;;;;4.36;84.81;98675.63;4950537;28;20598;-52
2021/12/26 10:49:31;;;;;;;26.02;7.40;;;;;;;4.43;85.06;98675.63;4968087;28;20516;-50
2021/12/26 10:51:59;;;;;;;28.02;6.43;;;;;;;4.44;84.84;98672.19;4984147;28;20498;-50
2021/12/26 10:54:31;;;;;;;34.95;8.70;;;;;;;4.47;84.75;98672.22;4966533;28;20058;-50
2021/12/26 10:57:11;;;;;;;37.75;8.40;;;;;;;4.49;84.78;98676.47;4965756;28;20541;-48
2021/12/26 10:59:40;;;;;;;33.63;7.45;;;;;;;4.55;84.73;98665.38;4964564;28;20521;-50
2021/12/26 11:02:07;;;;;;;23.48;5.22;;;;;;;4.58;84.60;98664.50;4964164;28;20503;-48
2021/12/26 11:04:36;;;;;;;19.10;5.75;;;;;;;4.62;85.04;98667.06;4964122;28;20184;-53
2021/12/26 11:07:08;;;;;;;26.65;6.80;;;;;;;4.63;84.81;98668.78;4978704;28;20059;-49
2021/12/26 11:09:36;;;;;;;26.92;7.07;;;;;;;4.65;84.10;98673.91;4967131;28;20475;-50
2021/12/26 11:12:07;;;;;;;25.25;7.05;;;;;;;4.67;84.64;98669.66;4960175;28;20695;-51
2021/12/26 11:14:58;;;;;;;30.73;7.03;;;;;;;4.66;84.54;98664.50;4966126;28;20059;-50
2021/12/26 11:17:32;;;;;;;27.02;6.30;;;;;;;4.71;84.31;98671.34;4967874;28;20050;-51
2021/12/26 11:19:59;;;;;;;21.73;6.65;;;;;;;4.68;84.69;98670.47;4969427;28;20070;-50
2021/12/26 11:22:27;;;;;;;28.50;6.55;;;;;;;4.71;84.63;98662.78;4960952;28;20047;-51
2021/12/26 11:24:54;;;;;;;28.90;7.88;;;;;;;4.71;84.60;98665.34;4963115;28;20066;-53
2021/12/26 11:27:21;;;;;;;21.95;6.70;;;;;;;4.73;84.74;98661.94;4965396;28;20054;-54
2021/12/26 11:29:49;;;;;;;25.52;6.40;;;;;;;4.76;85.01;98663.63;4969714;28;20054;-51
2021/12/26 11:32:16;;;;;;;19.77;5.30;;;;;;;4.79;84.71;98657.66;4966003;28;20046;-52
2021/12/26 11:34:46;;;;;;;21.23;5.90;;;;;;;4.82;84.92;98666.19;4962976;28;20134;-51
2021/12/26 11:37:14;;;;;;;21.98;5.72;;;;;;;4.82;84.59;98657.63;4964927;28;20042;-56
2021/12/26 11:39:43;;;;;;;30.02;6.30;;;;;;;4.86;85.21;98662.75;4966072;28;20051;-50